Time,TemperatureF,DewpointF,PressureIn,WindDirection,WindDirectionDegrees,WindSpeedMPH,WindSpeedGustMPH,Humidity,HourlyPrecipIn,Conditions,Clouds,dailyrainin,SoftwareType,DateUTC
2013-07-09 00:01:00,71.5,68.7,30.04,SE,124,0.0,0.0,91,0.00,,FEW060,0.00,VWS V14.01,2013-07-09 04:01:00,
2013-07-09 00:02:00,71.5,68.7,30.03,SE,124,0.0,0.0,91,0.00,,FEW060,0.00,VWS V14.01,2013-07-09 04:02:00,
2013-07-09 00:07:00,71.6,68.8,30.04,SE,142,0.0,1.0,91,0.00,,FEW048,0.00,VWS V14.01,2013-07-09 04:07:00,
2013-07-09 00:13:00,71.8,68.7,30.04,ESE,120,0.0,1.0,90,0.00,,FEW048,0.00,VWS V14.01,2013-07-09 04:13:00,
2013-07-09 00:18:00,71.8,68.7,30.04,SE,124,0.0,1.0,90,0.00,,FEW048,0.00,VWS V14.01,2013-07-09 04:18:00,
2013-07-09 00:23:00,71.7,68.6,30.04,SE,141,0.0,1.0,90,0.00,,FEW048,0.00,VWS V14.01,2013-07-09 04:23:00,
2013-07-09 00:28:00,71.6,68.8,30.04,ESE,119,0.0,2.0,91,0.00,,FEW048,0.00,VWS V14.01,2013-07-09 04:28:00,
2013-07-09 00:33:00,71.8,69.0,30.04,South,179,1.0,1.0,91,0.00,,FEW048,0.00,VWS V14.01,2013-07-09 04:33:00,
2013-07-09 00:38:00,72.2,69.1,30.04,WSW,238,0.0,0.0,90,0.02,,FEW048,0.02,VWS V14.01,2013-07-09 04:38:00,
2013-07-09 00:43:00,72.1,69.3,30.04,SSE,149,0.0,1.0,91,0.03,,FEW048,0.03,VWS V14.01,2013-07-09 04:43:00,
2013-07-09 00:48:00,71.9,69.1,30.04,SSE,152,1.0,4.0,91,0.04,,FEW048,0.04,VWS V14.01,2013-07-09 04:48:00,
2013-07-09 00:53:00,71.6,69.2,30.04,South,173,0.0,1.0,92,0.04,,FEW048,0.04,VWS V14.01,2013-07-09 04:53:00,
2013-07-09 00:58:00,71.5,69.4,30.04,South,174,0.0,0.0,93,0.04,,FEW048,0.04,VWS V14.01,2013-07-09 04:58:00,
2013-07-09 01:03:00,71.2,69.4,30.03,South,173,0.0,0.0,94,0.04,,CLR,0.04,VWS V14.01,2013-07-09 05:03:00,
2013-07-09 01:08:00,71.1,69.3,30.04,ESE,110,0.0,0.0,94,0.04,,CLR,0.04,VWS V14.01,2013-07-09 05:08:00,
2013-07-09 01:14:00,71.0,69.5,30.04,ESE,110,0.0,0.0,95,0.04,,CLR,0.04,VWS V14.01,2013-07-09 05:14:00,
2013-07-09 01:19:00,70.9,69.4,30.04,ESE,110,0.0,0.0,95,0.04,,CLR,0.04,VWS V14.01,2013-07-09 05:19:00,
2013-07-09 01:24:00,70.8,69.6,30.04,ESE,110,0.0,0.0,96,0.04,,CLR,0.04,VWS V14.01,2013-07-09 05:24:00,
2013-07-09 01:29:00,70.6,69.4,30.04,ESE,110,0.0,0.0,96,0.04,,CLR,0.04,VWS V14.01,2013-07-09 05:29:00,
2013-07-09 01:34:00,70.3,69.1,30.03,ESE,110,0.0,0.0,96,0.04,,CLR,0.04,VWS V14.01,2013-07-09 05:34:00,
2013-07-09 01:39:00,70.1,68.9,30.03,East,101,0.0,1.0,96,0.04,,CLR,0.04,VWS V14.01,2013-07-09 05:39:00,
2013-07-09 01:44:00,70.1,69.2,30.03,ESE,110,0.0,1.0,97,0.01,,CLR,0.04,VWS V14.01,2013-07-09 05:44:00,
2013-07-09 01:49:00,70.0,69.1,30.03,East,96,0.0,1.0,97,0.00,,CLR,0.04,VWS V14.01,2013-07-09 05:49:00,
2013-07-09 01:54:00,70.0,69.1,30.03,ESE,110,0.0,1.0,97,0.00,,CLR,0.04,VWS V14.01,2013-07-09 05:54:00,
2013-07-09 01:59:00,69.9,69.0,30.03,ESE,110,0.0,0.0,97,0.00,,CLR,0.04,VWS V14.01,2013-07-09 05:59:00,
2013-07-09 02:04:00,69.9,69.0,30.03,ESE,110,0.0,0.0,97,0.00,,,0.04,VWS V14.01,2013-07-09 06:04:00,
2013-07-09 02:09:00,69.8,68.9,30.03,ESE,110,0.0,0.0,97,0.00,,,0.04,VWS V14.01,2013-07-09 06:09:00,
2013-07-09 02:14:00,69.7,68.8,30.03,ESE,110,0.0,0.0,97,0.00,,,0.04,VWS V14.01,2013-07-09 06:14:00,
2013-07-09 02:19:00,69.8,69.2,30.03,ESE,110,0.0,0.0,98,0.00,,,0.04,VWS V14.01,2013-07-09 06:19:00,
2013-07-09 02:24:00,69.8,69.2,30.02,ESE,110,0.0,0.0,98,0.00,,,0.04,VWS V14.01,2013-07-09 06:24:00,
2013-07-09 02:30:00,69.9,69.3,30.02,ESE,110,0.0,0.0,98,0.00,,,0.04,VWS V14.01,2013-07-09 06:30:00,
2013-07-09 02:35:00,69.8,69.2,30.02,ESE,112,0.0,1.0,98,0.00,,,0.04,VWS V14.01,2013-07-09 06:35:00,
2013-07-09 02:40:00,69.6,69.0,30.02,ESE,115,0.0,0.0,98,0.00,,,0.04,VWS V14.01,2013-07-09 06:40:00,
2013-07-09 02:45:00,69.6,69.0,30.02,SE,127,0.0,1.0,98,0.00,,,0.04,VWS V14.01,2013-07-09 06:45:00,
2013-07-09 02:50:00,69.4,68.8,30.02,SE,127,0.0,0.0,98,0.00,,,0.04,VWS V14.01,2013-07-09 06:50:00,
2013-07-09 02:55:00,69.4,68.8,30.02,SE,127,0.0,0.0,98,0.00,,,0.04,VWS V14.01,2013-07-09 06:55:00,
2013-07-09 03:00:00,69.5,68.9,30.02,SE,127,0.0,0.0,98,0.00,,,0.04,VWS V14.01,2013-07-09 07:00:00,
2013-07-09 03:05:00,69.4,68.8,30.01,SE,127,0.0,0.0,98,0.00,,,0.04,VWS V14.01,2013-07-09 07:05:00,
2013-07-09 03:10:00,69.3,68.7,30.02,SE,127,0.0,0.0,98,0.00,,,0.04,VWS V14.01,2013-07-09 07:10:00,
2013-07-09 03:15:00,69.2,68.6,30.02,SE,127,0.0,0.0,98,0.00,,,0.04,VWS V14.01,2013-07-09 07:15:00,
2013-07-09 03:20:00,69.1,68.5,30.02,SE,127,0.0,0.0,98,0.00,,,0.04,VWS V14.01,2013-07-09 07:20:00,
2013-07-09 03:25:00,69.0,68.4,30.02,SE,127,0.0,0.0,98,0.00,,,0.04,VWS V14.01,2013-07-09 07:25:00,
2013-07-09 03:30:00,68.8,68.2,30.02,SE,127,0.0,0.0,98,0.00,,,0.04,VWS V14.01,2013-07-09 07:30:00,
2013-07-09 03:35:00,68.7,68.4,30.02,SE,127,0.0,0.0,99,0.00,,,0.04,VWS V14.01,2013-07-09 07:35:00,
2013-07-09 03:40:00,68.7,68.4,30.02,SE,135,0.0,0.0,99,0.00,,,0.04,VWS V14.01,2013-07-09 07:40:00,
2013-07-09 03:45:00,68.5,67.9,30.02,SE,136,0.0,1.0,98,0.00,,,0.04,VWS V14.01,2013-07-09 07:45:00,
2013-07-09 03:52:00,68.6,68.3,30.02,SE,134,0.0,0.0,99,0.00,,,0.04,VWS V14.01,2013-07-09 07:52:00,
2013-07-09 03:57:00,68.6,68.3,30.02,SE,134,0.0,1.0,99,0.00,,,0.04,VWS V14.01,2013-07-09 07:57:00,
2013-07-09 04:02:00,68.5,68.2,30.02,East,101,0.0,1.0,99,0.00,,,0.04,VWS V14.01,2013-07-09 08:02:00,
2013-07-09 04:07:00,68.6,68.3,30.02,East,101,0.0,0.0,99,0.00,,,0.04,VWS V14.01,2013-07-09 08:07:00,
2013-07-09 04:13:00,68.7,68.4,30.02,East,101,0.0,0.0,99,0.00,,,0.04,VWS V14.01,2013-07-09 08:13:00,
2013-07-09 04:18:00,68.7,68.4,30.02,East,101,0.0,0.0,99,0.00,,,0.04,VWS V14.01,2013-07-09 08:18:00,
2013-07-09 04:23:00,68.8,68.5,30.02,East,101,0.0,0.0,99,0.00,,,0.04,VWS V14.01,2013-07-09 08:23:00,
2013-07-09 04:28:00,68.9,68.6,30.03,East,101,0.0,0.0,99,0.00,,,0.04,VWS V14.01,2013-07-09 08:28:00,
2013-07-09 04:33:00,68.9,68.6,30.03,East,101,0.0,0.0,99,0.00,,,0.04,VWS V14.01,2013-07-09 08:33:00,
2013-07-09 04:38:00,68.9,68.6,30.02,East,101,0.0,0.0,99,0.00,,,0.04,VWS V14.01,2013-07-09 08:38:00,
2013-07-09 04:43:00,68.9,68.6,30.03,East,101,0.0,0.0,99,0.00,,,0.04,VWS V14.01,2013-07-09 08:43:00,
2013-07-09 04:48:00,68.8,68.5,30.03,East,101,0.0,0.0,99,0.00,,,0.04,VWS V14.01,2013-07-09 08:48:00,
2013-07-09 04:53:00,68.8,68.5,30.03,East,101,0.0,0.0,99,0.00,,,0.04,VWS V14.01,2013-07-09 08:53:00,
2013-07-09 04:58:00,68.8,68.5,30.03,East,101,0.0,0.0,99,0.00,,,0.04,VWS V14.01,2013-07-09 08:58:00,
2013-07-09 05:03:00,68.7,68.4,30.03,ESE,102,0.0,0.0,99,0.00,,,0.04,VWS V14.01,2013-07-09 09:03:00,
2013-07-09 05:08:00,68.6,68.3,30.03,East,101,0.0,1.0,99,0.00,,,0.04,VWS V14.01,2013-07-09 09:08:00,
2013-07-09 05:13:00,68.5,68.2,30.03,ESE,102,0.0,1.0,99,0.00,,,0.04,VWS V14.01,2013-07-09 09:13:00,
2013-07-09 05:18:00,68.5,68.2,30.03,East,98,0.0,1.0,99,0.00,,,0.04,VWS V14.01,2013-07-09 09:18:00,
2013-07-09 05:24:00,68.5,68.2,30.03,East,96,0.0,0.0,99,0.00,,,0.04,VWS V14.01,2013-07-09 09:24:00,
2013-07-09 05:29:00,68.5,68.2,30.03,East,90,0.0,1.0,99,0.00,,,0.04,VWS V14.01,2013-07-09 09:29:00,
2013-07-09 05:34:00,68.5,68.2,30.03,East,91,0.0,0.0,99,0.00,,,0.04,VWS V14.01,2013-07-09 09:34:00,
2013-07-09 05:39:00,68.5,68.2,30.04,East,92,0.0,0.0,99,0.00,,,0.04,VWS V14.01,2013-07-09 09:39:00,
2013-07-09 05:44:00,68.5,68.2,30.04,East,91,0.0,0.0,99,0.00,,,0.04,VWS V14.01,2013-07-09 09:44:00,
2013-07-09 05:49:00,68.5,68.2,30.04,East,92,0.0,0.0,99,0.00,,,0.04,VWS V14.01,2013-07-09 09:49:00,
2013-07-09 05:54:00,68.5,68.2,30.04,East,92,0.0,0.0,99,0.00,,,0.04,VWS V14.01,2013-07-09 09:54:00,
2013-07-09 05:59:00,68.6,68.3,30.04,East,91,0.0,0.0,99,0.00,,,0.04,VWS V14.01,2013-07-09 09:59:00,
2013-07-09 06:04:00,68.7,68.4,30.04,East,92,0.0,0.0,99,0.00,,,0.04,VWS V14.01,2013-07-09 10:04:00,
2013-07-09 06:09:00,68.7,68.4,30.04,East,92,0.0,0.0,99,0.00,,,0.04,VWS V14.01,2013-07-09 10:09:00,
2013-07-09 06:14:00,68.7,68.4,30.04,East,92,0.0,0.0,99,0.00,,,0.04,VWS V14.01,2013-07-09 10:14:00,
2013-07-09 06:19:00,68.8,68.5,30.04,East,91,0.0,0.0,99,0.00,,,0.04,VWS V14.01,2013-07-09 10:19:00,
2013-07-09 06:24:00,68.8,68.5,30.04,East,91,0.0,0.0,99,0.00,,,0.04,VWS V14.01,2013-07-09 10:24:00,
2013-07-09 06:29:00,68.8,68.5,30.04,East,92,0.0,0.0,99,0.00,,,0.04,VWS V14.01,2013-07-09 10:29:00,
2013-07-09 06:34:00,68.9,68.6,30.04,East,98,0.0,0.0,99,0.00,,,0.04,VWS V14.01,2013-07-09 10:34:00,
2013-07-09 06:39:00,69.0,68.7,30.04,East,99,0.0,0.0,99,0.00,,,0.04,VWS V14.01,2013-07-09 10:39:00,
2013-07-09 06:44:00,69.2,68.9,30.04,ESE,115,0.0,1.0,99,0.00,,,0.04,VWS V14.01,2013-07-09 10:44:00,
2013-07-09 06:49:00,69.7,69.4,30.04,ESE,115,0.0,0.0,99,0.00,,,0.04,VWS V14.01,2013-07-09 10:49:00,
2013-07-09 06:54:00,70.0,69.7,30.04,ESE,115,0.0,0.0,99,0.00,,,0.04,VWS V14.01,2013-07-09 10:54:00,
2013-07-09 06:59:00,70.4,70.1,30.04,ESE,115,0.0,0.0,99,0.00,,,0.04,VWS V14.01,2013-07-09 10:59:00,
2013-07-09 07:05:00,70.6,70.3,30.04,ESE,115,0.0,0.0,99,0.00,,,0.04,VWS V14.01,2013-07-09 11:05:00,
2013-07-09 07:10:00,70.8,70.5,30.05,ESE,115,0.0,0.0,99,0.00,,,0.04,VWS V14.01,2013-07-09 11:10:00,
2013-07-09 07:15:00,70.8,70.2,30.04,ESE,114,0.0,0.0,98,0.00,,,0.04,VWS V14.01,2013-07-09 11:15:00,
2013-07-09 07:20:00,71.2,70.9,30.05,ESE,114,0.0,0.0,99,0.00,,,0.04,VWS V14.01,2013-07-09 11:20:00,
2013-07-09 07:25:00,71.4,70.8,30.05,ESE,114,0.0,0.0,98,0.00,,,0.04,VWS V14.01,2013-07-09 11:25:00,
2013-07-09 07:30:00,71.7,71.1,30.05,ESE,114,0.0,0.0,98,0.00,,,0.04,VWS V14.01,2013-07-09 11:30:00,
2013-07-09 07:35:00,72.1,71.2,30.05,ESE,115,0.0,0.0,97,0.00,,,0.04,VWS V14.01,2013-07-09 11:35:00,
2013-07-09 07:40:00,72.3,71.1,30.05,SE,131,0.0,1.0,96,0.00,,,0.04,VWS V14.01,2013-07-09 11:40:00,
2013-07-09 07:45:00,72.5,70.7,30.05,SE,133,0.0,0.0,94,0.00,,,0.04,VWS V14.01,2013-07-09 11:45:00,
2013-07-09 07:50:00,72.7,70.2,30.05,West,277,0.0,1.0,92,0.00,,,0.04,VWS V14.01,2013-07-09 11:50:00,
2013-07-09 07:55:00,72.8,70.3,30.04,West,274,0.0,0.0,92,0.00,,,0.04,VWS V14.01,2013-07-09 11:55:00,
2013-07-09 08:00:00,73.2,70.7,30.04,West,274,0.0,0.0,92,0.00,,,0.04,VWS V14.01,2013-07-09 12:00:00,
2013-07-09 08:05:00,73.4,70.3,30.04,West,274,0.0,1.0,90,0.00,,,0.04,VWS V14.01,2013-07-09 12:05:00,
2013-07-09 08:10:00,73.4,70.3,30.05,SW,232,0.0,0.0,90,0.00,,,0.04,VWS V14.01,2013-07-09 12:10:00,
2013-07-09 08:15:00,73.4,70.3,30.05,SW,235,0.0,0.0,90,0.00,,,0.04,VWS V14.01,2013-07-09 12:15:00,
2013-07-09 08:20:00,73.4,70.3,30.05,SW,232,0.0,0.0,90,0.00,,,0.04,VWS V14.01,2013-07-09 12:20:00,
2013-07-09 08:25:00,73.4,70.3,30.05,SW,231,0.0,0.0,90,0.00,,,0.04,VWS V14.01,2013-07-09 12:25:00,
2013-07-09 08:30:00,73.5,70.4,30.05,South,181,0.0,0.0,90,0.00,,,0.04,VWS V14.01,2013-07-09 12:30:00,
2013-07-09 08:35:00,73.5,70.4,30.05,SW,229,0.0,0.0,90,0.00,,,0.04,VWS V14.01,2013-07-09 12:35:00,
2013-07-09 08:40:00,73.6,70.5,30.05,SW,229,0.0,0.0,90,0.00,,,0.04,VWS V14.01,2013-07-09 12:40:00,
2013-07-09 08:45:00,73.9,71.1,30.05,SW,229,0.0,0.0,91,0.00,,,0.04,VWS V14.01,2013-07-09 12:45:00,
2013-07-09 08:50:00,74.1,71.3,30.05,SE,138,0.0,1.0,91,0.00,,,0.04,VWS V14.01,2013-07-09 12:50:00,
2013-07-09 08:55:00,74.0,70.9,30.05,South,172,0.0,1.0,90,0.00,,,0.04,VWS V14.01,2013-07-09 12:55:00,
2013-07-09 09:00:00,74.2,71.4,30.05,SW,222,0.0,0.0,91,0.00,,,0.04,VWS V14.01,2013-07-09 13:00:00,
2013-07-09 09:05:00,74.4,71.6,30.05,ESE,118,0.0,1.0,91,0.00,,,0.04,VWS V14.01,2013-07-09 13:05:00,
2013-07-09 09:10:00,74.3,71.8,30.05,SSE,158,1.0,3.0,92,0.00,,,0.04,VWS V14.01,2013-07-09 13:10:00,
2013-07-09 09:16:00,74.2,71.7,30.05,WSW,243,2.0,2.0,92,0.00,,,0.04,VWS V14.01,2013-07-09 13:16:00,
2013-07-09 09:21:00,74.2,71.7,30.05,SSE,148,1.0,1.0,92,0.00,,,0.04,VWS V14.01,2013-07-09 13:21:00,
2013-07-09 09:26:00,74.2,71.7,30.05,ESE,120,3.0,3.0,92,0.00,,,0.04,VWS V14.01,2013-07-09 13:26:00,
2013-07-09 09:31:00,74.1,71.6,30.05,SE,145,0.0,2.0,92,0.00,,,0.04,VWS V14.01,2013-07-09 13:31:00,
2013-07-09 09:36:00,74.1,71.9,30.04,ESE,117,1.0,2.0,93,0.00,,,0.04,VWS V14.01,2013-07-09 13:36:00,
2013-07-09 09:41:00,74.1,71.9,30.05,ESE,121,1.0,1.0,93,0.00,,,0.04,VWS V14.01,2013-07-09 13:41:00,
2013-07-09 09:46:00,74.3,72.2,30.05,ESE,115,1.0,1.0,93,0.00,,,0.04,VWS V14.01,2013-07-09 13:46:00,
2013-07-09 09:51:00,74.4,72.2,30.05,SSE,155,0.0,0.0,93,0.00,,,0.04,VWS V14.01,2013-07-09 13:51:00,
2013-07-09 09:56:00,74.6,71.8,30.05,SSW,211,0.0,0.0,91,0.00,,,0.04,VWS V14.01,2013-07-09 13:56:00,
2013-07-09 10:01:00,74.9,71.8,30.05,West,264,0.0,1.0,90,0.00,,,0.04,VWS V14.01,2013-07-09 14:01:00,
2013-07-09 10:06:00,75.1,72.0,30.05,SSE,165,0.0,0.0,90,0.00,,,0.04,VWS V14.01,2013-07-09 14:06:00,
2013-07-09 10:11:00,75.6,72.1,30.04,East,101,0.0,1.0,89,0.00,,,0.04,VWS V14.01,2013-07-09 14:11:00,
2013-07-09 10:16:00,75.7,72.6,30.04,ESE,108,0.0,0.0,90,0.00,,,0.04,VWS V14.01,2013-07-09 14:16:00,
2013-07-09 10:21:00,76.0,72.5,30.04,ESE,106,0.0,0.0,89,0.00,,,0.04,VWS V14.01,2013-07-09 14:21:00,
2013-07-09 10:26:00,76.8,73.3,30.05,West,260,0.0,1.0,89,0.00,,,0.04,VWS V14.01,2013-07-09 14:26:00,
2013-07-09 10:31:00,76.9,72.4,30.04,West,262,0.0,0.0,86,0.00,,,0.04,VWS V14.01,2013-07-09 14:31:00,
2013-07-09 10:36:00,77.0,72.2,30.05,WSW,248,2.0,2.0,85,0.00,,,0.04,VWS V14.01,2013-07-09 14:36:00,
2013-07-09 10:41:00,77.0,72.2,30.05,WSW,241,1.0,2.0,85,0.00,,,0.04,VWS V14.01,2013-07-09 14:41:00,
2013-07-09 10:46:00,77.4,72.9,30.05,WSW,242,2.0,2.0,86,0.00,,,0.04,VWS V14.01,2013-07-09 14:46:00,
2013-07-09 10:51:00,77.5,72.6,30.05,WSW,247,0.0,0.0,85,0.00,,,0.04,VWS V14.01,2013-07-09 14:51:00,
2013-07-09 10:56:00,79.0,73.8,30.05,SSW,208,1.0,1.0,84,0.00,,,0.04,VWS V14.01,2013-07-09 14:56:00,
2013-07-09 11:01:00,79.7,73.4,30.05,WNW,297,0.0,0.0,81,0.00,,,0.04,VWS V14.01,2013-07-09 15:01:00,
2013-07-09 11:06:00,80.4,74.0,30.05,SE,129,0.0,1.0,81,0.00,,,0.04,VWS V14.01,2013-07-09 15:06:00,
2013-07-09 11:11:00,80.3,73.2,30.05,West,270,0.0,1.0,79,0.00,,,0.04,VWS V14.01,2013-07-09 15:11:00,
2013-07-09 11:16:00,80.1,73.4,30.05,SSE,149,0.0,2.0,80,0.00,,,0.04,VWS V14.01,2013-07-09 15:16:00,
2013-07-09 11:21:00,80.1,73.4,30.05,SSE,168,2.0,2.0,80,0.00,,,0.04,VWS V14.01,2013-07-09 15:21:00,
2013-07-09 11:26:00,80.0,72.9,30.05,SW,231,0.0,1.0,79,0.00,,,0.04,VWS V14.01,2013-07-09 15:26:00,
2013-07-09 11:32:00,80.1,73.4,30.05,South,186,0.0,1.0,80,0.00,,,0.04,VWS V14.01,2013-07-09 15:32:00,
2013-07-09 11:37:00,79.9,72.8,30.05,West,273,1.0,2.0,79,0.00,,,0.04,VWS V14.01,2013-07-09 15:37:00,
2013-07-09 11:42:00,79.7,73.4,30.05,SW,228,0.0,0.0,81,0.00,,,0.04,VWS V14.01,2013-07-09 15:42:00,
2013-07-09 11:47:00,79.6,73.3,30.05,WSW,240,1.0,1.0,81,0.00,,,0.04,VWS V14.01,2013-07-09 15:47:00,
2013-07-09 11:52:00,79.6,73.3,30.05,WNW,284,0.0,0.0,81,0.00,,,0.04,VWS V14.01,2013-07-09 15:52:00,
2013-07-09 11:57:00,80.6,74.2,30.05,West,270,0.0,3.0,81,0.00,,,0.04,VWS V14.01,2013-07-09 15:57:00,
2013-07-09 12:02:00,80.8,74.4,30.05,SE,138,0.0,1.0,81,0.00,,,0.04,VWS V14.01,2013-07-09 16:02:00,
2013-07-09 12:07:00,80.6,74.2,30.05,SE,138,4.0,5.0,81,0.00,,,0.04,VWS V14.01,2013-07-09 16:07:00,
2013-07-09 12:12:00,80.3,75.0,30.05,SSE,152,3.0,3.0,84,0.00,,,0.04,VWS V14.01,2013-07-09 16:12:00,
2013-07-09 12:17:00,80.0,74.0,30.05,SSE,150,3.0,6.0,82,0.00,,,0.04,VWS V14.01,2013-07-09 16:17:00,
2013-07-09 12:22:00,79.9,74.3,30.04,SE,130,4.0,5.0,83,0.00,,,0.04,VWS V14.01,2013-07-09 16:22:00,
2013-07-09 12:27:00,80.1,74.8,30.05,SE,134,3.0,3.0,84,0.00,,,0.04,VWS V14.01,2013-07-09 16:27:00,
2013-07-09 12:32:00,79.8,74.2,30.05,ESE,103,4.0,5.0,83,0.00,,,0.04,VWS V14.01,2013-07-09 16:32:00,
2013-07-09 12:37:00,79.7,74.4,30.05,ESE,110,1.0,5.0,84,0.00,,,0.04,VWS V14.01,2013-07-09 16:37:00,
2013-07-09 12:42:00,80.5,74.9,30.05,SW,233,0.0,2.0,83,0.00,,,0.04,VWS V14.01,2013-07-09 16:42:00,
2013-07-09 12:47:00,80.6,74.6,30.05,SE,146,3.0,5.0,82,0.00,,,0.04,VWS V14.01,2013-07-09 16:47:00,
2013-07-09 12:52:00,80.8,74.4,30.04,SW,232,2.0,4.0,81,0.00,,,0.04,VWS V14.01,2013-07-09 16:52:00,
2013-07-09 12:57:00,81.2,74.8,30.04,WSW,239,3.0,4.0,81,0.00,,,0.04,VWS V14.01,2013-07-09 16:57:00,
2013-07-09 13:02:00,81.4,74.3,30.04,SE,134,2.0,6.0,79,0.00,,,0.04,VWS V14.01,2013-07-09 17:02:00,
2013-07-09 13:07:00,81.8,75.0,30.04,East,101,1.0,4.0,80,0.00,,,0.04,VWS V14.01,2013-07-09 17:07:00,
2013-07-09 13:12:00,82.5,74.9,30.04,SE,127,1.0,2.0,78,0.00,,,0.04,VWS V14.01,2013-07-09 17:12:00,
2013-07-09 13:18:00,82.5,74.2,30.04,ENE,76,0.0,4.0,76,0.00,,,0.04,VWS V14.01,2013-07-09 17:18:00,
2013-07-09 13:23:00,82.5,74.6,30.04,SE,138,4.0,4.0,77,0.00,,,0.04,VWS V14.01,2013-07-09 17:23:00,
2013-07-09 13:28:00,82.6,73.5,30.04,SW,233,0.0,3.0,74,0.00,,,0.04,VWS V14.01,2013-07-09 17:28:00,
2013-07-09 13:33:00,83.5,73.1,30.03,WNW,287,0.0,3.0,71,0.00,,,0.04,VWS V14.01,2013-07-09 17:33:00,
2013-07-09 13:38:00,84.8,74.4,30.03,SSE,150,4.0,5.0,71,0.00,,,0.04,VWS V14.01,2013-07-09 17:38:00,
2013-07-09 13:43:00,84.3,74.7,30.02,SE,139,4.0,7.0,73,0.00,,,0.04,VWS V14.01,2013-07-09 17:43:00,
2013-07-09 13:48:00,83.7,73.7,30.02,SSE,165,5.0,9.0,72,0.00,,,0.04,VWS V14.01,2013-07-09 17:48:00,
2013-07-09 13:53:00,83.2,74.1,30.02,SE,135,5.0,5.0,74,0.00,,,0.04,VWS V14.01,2013-07-09 17:53:00,
2013-07-09 13:58:00,82.5,73.4,30.02,SW,219,2.0,7.0,74,0.00,,,0.04,VWS V14.01,2013-07-09 17:58:00,
2013-07-09 14:03:00,82.9,73.8,30.02,SE,130,7.0,7.0,74,0.00,,,0.04,VWS V14.01,2013-07-09 18:03:00,
2013-07-09 14:08:00,83.0,74.3,30.02,SE,139,1.0,8.0,75,0.00,,,0.04,VWS V14.01,2013-07-09 18:08:00,
2013-07-09 14:13:00,83.4,73.0,30.02,WSW,255,1.0,6.0,71,0.00,,,0.04,VWS V14.01,2013-07-09 18:13:00,
2013-07-09 14:18:00,84.1,73.7,30.01,South,172,1.0,5.0,71,0.00,,,0.04,VWS V14.01,2013-07-09 18:18:00,
2013-07-09 14:23:00,83.3,72.9,30.01,South,174,4.0,8.0,71,0.00,,,0.04,VWS V14.01,2013-07-09 18:23:00,
2013-07-09 14:28:00,82.9,72.9,30.01,SE,135,4.0,7.0,72,0.00,,,0.04,VWS V14.01,2013-07-09 18:28:00,
2013-07-09 14:33:00,82.4,72.9,30.01,SW,233,0.0,3.0,73,0.00,,,0.04,VWS V14.01,2013-07-09 18:33:00,
2013-07-09 14:38:00,82.0,73.3,30.01,West,281,2.0,2.0,75,0.00,,,0.04,VWS V14.01,2013-07-09 18:38:00,
2013-07-09 14:43:00,79.4,71.9,30.02,WNW,285,3.0,15.0,78,0.00,,,0.04,VWS V14.01,2013-07-09 18:43:00,
2013-07-09 14:48:00,75.8,70.6,30.02,West,267,5.0,13.0,84,0.07,,,0.11,VWS V14.01,2013-07-09 18:48:00,
2013-07-09 14:53:00,72.7,69.3,30.03,WSW,240,8.0,14.0,89,0.28,,,0.32,VWS V14.01,2013-07-09 18:53:00,
2013-07-09 14:58:00,70.8,68.7,30.02,SSE,148,0.0,11.0,93,0.62,,,0.66,VWS V14.01,2013-07-09 18:58:00,
2013-07-09 15:03:00,70.3,68.8,30.02,NW,307,0.0,1.0,95,0.66,, +RA,0.70,VWS V14.01,2013-07-09 19:03:00,
2013-07-09 15:08:00,70.8,69.9,30.01,West,268,0.0,0.0,97,0.66,, +RA,0.70,VWS V14.01,2013-07-09 19:08:00,
2013-07-09 15:13:00,71.6,70.7,30.01,SE,139,0.0,1.0,97,0.66,, +RA,0.70,VWS V14.01,2013-07-09 19:13:00,
2013-07-09 15:18:00,72.5,71.3,30.01,SSE,150,1.0,2.0,96,0.66,, +RA,0.70,VWS V14.01,2013-07-09 19:18:00,
2013-07-09 15:23:00,73.0,71.5,30.01,ESE,113,0.0,3.0,95,0.66,, +RA,0.70,VWS V14.01,2013-07-09 19:23:00,
2013-07-09 15:28:00,74.1,72.6,30.01,ESE,120,0.0,1.0,95,0.66,, +RA,0.70,VWS V14.01,2013-07-09 19:28:00,
2013-07-09 15:33:00,76.0,75.1,30.01,East,81,0.0,2.0,97,0.66,,-RA,0.70,VWS V14.01,2013-07-09 19:33:00,
2013-07-09 15:38:00,76.7,74.2,30.01,WSW,250,3.0,6.0,92,0.66,,-RA,0.70,VWS V14.01,2013-07-09 19:38:00,
2013-07-09 15:43:00,76.5,72.0,30.01,WNW,298,5.0,8.0,86,0.66,,-RA,0.70,VWS V14.01,2013-07-09 19:43:00,
2013-07-09 15:48:00,76.5,72.3,30.01,West,275,1.0,6.0,87,0.66,,-RA,0.70,VWS V14.01,2013-07-09 19:48:00,
2013-07-09 15:53:00,76.7,72.2,30.01,West,281,4.0,6.0,86,0.57,,-RA,0.70,VWS V14.01,2013-07-09 19:53:00,
2013-07-09 15:58:00,77.2,72.3,30.01,WSW,253,3.0,4.0,85,0.27,,-RA,0.70,VWS V14.01,2013-07-09 19:58:00,
2013-07-09 16:03:00,77.9,73.0,30.01,WSW,245,3.0,3.0,85,0.02,,,0.70,VWS V14.01,2013-07-09 20:03:00,
2013-07-09 16:09:00,78.1,71.8,30.01,SW,221,6.0,10.0,81,0.00,,,0.70,VWS V14.01,2013-07-09 20:09:00,
2013-07-09 16:14:00,78.3,72.0,30.01,WSW,250,1.0,7.0,81,0.00,,,0.70,VWS V14.01,2013-07-09 20:14:00,
2013-07-09 16:19:00,77.9,70.9,30.01,SW,229,6.0,9.0,79,0.00,,,0.70,VWS V14.01,2013-07-09 20:19:00,
2013-07-09 16:24:00,77.8,70.8,30.00,WSW,240,7.0,12.0,79,0.00,,,0.70,VWS V14.01,2013-07-09 20:24:00,
2013-07-09 16:29:00,78.3,71.6,30.00,SW,229,4.0,8.0,80,0.00,,,0.70,VWS V14.01,2013-07-09 20:29:00,
2013-07-09 16:34:00,78.7,71.6,30.00,WSW,253,2.0,7.0,79,0.00,,,0.70,VWS V14.01,2013-07-09 20:34:00,
2013-07-09 16:39:00,78.8,71.7,30.00,West,259,0.0,9.0,79,0.00,,,0.70,VWS V14.01,2013-07-09 20:39:00,
2013-07-09 16:44:00,79.1,72.8,30.00,SSW,212,1.0,7.0,81,0.00,,,0.70,VWS V14.01,2013-07-09 20:44:00,
2013-07-09 16:49:00,79.1,71.7,30.00,WSW,246,3.0,8.0,78,0.00,,,0.70,VWS V14.01,2013-07-09 20:49:00,
2013-07-09 16:54:00,79.2,71.8,30.00,WSW,246,5.0,11.0,78,0.00,,,0.70,VWS V14.01,2013-07-09 20:54:00,
2013-07-09 16:59:00,78.8,71.4,30.00,WSW,257,7.0,9.0,78,0.00,,,0.70,VWS V14.01,2013-07-09 20:59:00,
2013-07-09 17:04:00,78.5,71.8,30.00,SW,222,4.0,8.0,80,0.00,,OVC110,0.70,VWS V14.01,2013-07-09 21:04:00,
2013-07-09 17:09:00,78.3,71.6,30.00,WSW,238,3.0,5.0,80,0.00,,OVC110,0.70,VWS V14.01,2013-07-09 21:09:00,
2013-07-09 17:14:00,78.0,71.3,30.00,West,277,0.0,7.0,80,0.00,,OVC110,0.70,VWS V14.01,2013-07-09 21:14:00,
2013-07-09 17:19:00,77.7,71.4,29.99,WSW,245,1.0,7.0,81,0.00,,OVC110,0.70,VWS V14.01,2013-07-09 21:19:00,
2013-07-09 17:24:00,77.4,71.1,29.99,SW,229,3.0,3.0,81,0.00,,OVC110,0.70,VWS V14.01,2013-07-09 21:24:00,
2013-07-09 17:29:00,77.2,71.3,29.99,SW,226,0.0,1.0,82,0.00,,OVC110,0.70,VWS V14.01,2013-07-09 21:29:00,
2013-07-09 17:34:00,77.2,71.3,29.99,WSW,246,0.0,2.0,82,0.00,,OVC110,0.70,VWS V14.01,2013-07-09 21:34:00,
2013-07-09 17:39:00,77.4,71.5,29.99,SSW,200,0.0,1.0,82,0.00,,OVC110,0.70,VWS V14.01,2013-07-09 21:39:00,
2013-07-09 17:45:00,77.4,71.5,29.98,South,172,0.0,1.0,82,0.00,,OVC110,0.70,VWS V14.01,2013-07-09 21:45:00,
2013-07-09 17:50:00,77.4,71.5,29.98,SW,214,0.0,3.0,82,0.00,,OVC110,0.70,VWS V14.01,2013-07-09 21:50:00,
2013-07-09 17:55:00,77.1,70.5,29.98,SW,217,1.0,4.0,80,0.00,,OVC110,0.70,VWS V14.01,2013-07-09 21:55:00,
2013-07-09 18:00:00,76.9,70.6,29.98,SW,232,1.0,4.0,81,0.00,,OVC110,0.70,VWS V14.01,2013-07-09 22:00:00,
2013-07-09 18:05:00,76.7,70.8,29.98,SW,233,1.0,3.0,82,0.00,,OVC049,0.70,VWS V14.01,2013-07-09 22:05:00,
2013-07-09 18:10:00,76.5,71.0,29.98,WSW,253,0.0,2.0,83,0.00,,OVC049,0.70,VWS V14.01,2013-07-09 22:10:00,
2013-07-09 18:15:00,76.4,70.9,29.98,WSW,240,2.0,2.0,83,0.00,,OVC049,0.70,VWS V14.01,2013-07-09 22:15:00,
2013-07-09 18:20:00,76.0,70.5,29.98,SW,233,0.0,2.0,83,0.00,,OVC049,0.70,VWS V14.01,2013-07-09 22:20:00,
2013-07-09 18:25:00,75.9,70.7,29.97,WSW,248,0.0,1.0,84,0.00,,OVC049,0.70,VWS V14.01,2013-07-09 22:25:00,
2013-07-09 18:30:00,75.8,70.6,29.97,WSW,257,0.0,1.0,84,0.00,,OVC049,0.70,VWS V14.01,2013-07-09 22:30:00,
2013-07-09 18:35:00,76.0,70.8,29.97,WSW,253,0.0,1.0,84,0.00,,OVC049,0.70,VWS V14.01,2013-07-09 22:35:00,
2013-07-09 18:40:00,76.5,71.3,29.97,WSW,246,0.0,1.0,84,0.00,,OVC049,0.70,VWS V14.01,2013-07-09 22:40:00,
2013-07-09 18:45:00,76.6,71.1,29.97,West,274,0.0,2.0,83,0.00,,OVC049,0.70,VWS V14.01,2013-07-09 22:45:00,
2013-07-09 18:50:00,76.6,71.1,29.97,WSW,242,0.0,2.0,83,0.00,,OVC049,0.70,VWS V14.01,2013-07-09 22:50:00,
2013-07-09 18:55:00,76.5,71.0,29.97,SW,226,1.0,3.0,83,0.00,,OVC049,0.70,VWS V14.01,2013-07-09 22:55:00,
2013-07-09 19:00:00,76.6,71.1,29.97,SW,232,0.0,3.0,83,0.00,,OVC049,0.70,VWS V14.01,2013-07-09 23:00:00,
2013-07-09 19:05:00,76.6,71.1,29.97,West,259,0.0,2.0,83,0.00,,BKN075,0.70,VWS V14.01,2013-07-09 23:05:00,
2013-07-09 19:10:00,76.6,71.1,29.97,WSW,242,1.0,1.0,83,0.00,,BKN075,0.70,VWS V14.01,2013-07-09 23:10:00,
2013-07-09 19:15:00,76.6,71.1,29.97,WSW,242,1.0,2.0,83,0.00,,BKN075,0.70,VWS V14.01,2013-07-09 23:15:00,
2013-07-09 19:20:00,76.6,71.1,29.97,WSW,246,0.0,2.0,83,0.00,,BKN075,0.70,VWS V14.01,2013-07-09 23:20:00,
2013-07-09 19:25:00,76.5,71.0,29.97,SW,235,0.0,2.0,83,0.00,,BKN075,0.70,VWS V14.01,2013-07-09 23:25:00,
2013-07-09 19:30:00,76.5,71.3,29.97,SW,235,0.0,1.0,84,0.00,,BKN075,0.70,VWS V14.01,2013-07-09 23:30:00,
2013-07-09 19:35:00,76.5,71.3,29.97,SW,225,1.0,1.0,84,0.00,,BKN075,0.70,VWS V14.01,2013-07-09 23:35:00,
2013-07-09 19:40:00,76.4,71.2,29.97,South,169,0.0,0.0,84,0.00,,BKN075,0.70,VWS V14.01,2013-07-09 23:40:00,
2013-07-09 19:45:00,76.4,71.6,29.97,SE,138,1.0,1.0,85,0.00,,BKN075,0.70,VWS V14.01,2013-07-09 23:45:00,
2013-07-09 19:50:00,76.1,71.3,29.97,SE,145,0.0,0.0,85,0.00,,BKN075,0.70,VWS V14.01,2013-07-09 23:50:00,
2013-07-09 19:55:00,76.0,71.5,29.98,SE,146,0.0,0.0,86,0.00,,BKN075,0.70,VWS V14.01,2013-07-09 23:55:00,
2013-07-09 20:00:00,76.1,71.6,29.97,SE,146,0.0,0.0,86,0.00,,BKN075,0.70,VWS V14.01,2013-07-10 00:00:00,
2013-07-09 20:05:00,76.1,71.9,29.97,SE,146,0.0,0.0,87,0.00,,BKN060,0.70,VWS V14.01,2013-07-10 00:05:00,
2013-07-09 20:10:00,76.0,71.9,29.97,SE,146,0.0,0.0,87,0.00,,BKN060,0.70,VWS V14.01,2013-07-10 00:10:00,
2013-07-09 20:15:00,75.8,72.0,29.97,SE,146,0.0,0.0,88,0.00,,BKN060,0.70,VWS V14.01,2013-07-10 00:15:00,
2013-07-09 20:20:00,75.8,72.3,29.98,SSE,147,0.0,0.0,89,0.00,,BKN060,0.70,VWS V14.01,2013-07-10 00:20:00,
2013-07-09 20:25:00,75.6,71.8,29.98,SW,221,0.0,0.0,88,0.00,,BKN060,0.70,VWS V14.01,2013-07-10 00:25:00,
2013-07-09 20:30:00,75.2,71.7,29.98,SW,222,0.0,0.0,89,0.00,,BKN060,0.70,VWS V14.01,2013-07-10 00:30:00,
2013-07-09 20:35:00,75.0,71.5,29.98,SW,221,0.0,0.0,89,0.00,,BKN060,0.70,VWS V14.01,2013-07-10 00:35:00,
2013-07-09 20:40:00,74.7,71.9,29.98,SE,142,0.0,0.0,91,0.00,,BKN060,0.70,VWS V14.01,2013-07-10 00:40:00,
2013-07-09 20:45:00,73.9,71.4,29.98,SE,142,0.0,0.0,92,0.00,,BKN060,0.70,VWS V14.01,2013-07-10 00:45:00,
2013-07-09 20:50:00,73.5,71.4,29.98,SE,143,0.0,0.0,93,0.00,,BKN060,0.70,VWS V14.01,2013-07-10 00:50:00,
2013-07-09 20:55:00,73.1,71.3,29.99,SE,142,0.0,0.0,94,0.00,,BKN060,0.70,VWS V14.01,2013-07-10 00:55:00,
2013-07-09 21:00:00,72.9,71.4,29.99,SE,127,0.0,0.0,95,0.00,,BKN060,0.70,VWS V14.01,2013-07-10 01:00:00,
2013-07-09 21:05:00,72.6,71.1,29.99,East,100,0.0,0.0,95,0.00,,FEW040,0.70,VWS V14.01,2013-07-10 01:05:00,
2013-07-09 21:10:00,72.4,71.2,29.99,East,100,0.0,0.0,96,0.00,,FEW040,0.70,VWS V14.01,2013-07-10 01:10:00,
2013-07-09 21:15:00,72.3,71.1,29.99,East,101,0.0,0.0,96,0.00,,FEW040,0.70,VWS V14.01,2013-07-10 01:15:00,
2013-07-09 21:20:00,72.2,71.0,30.00,ESE,117,0.0,1.0,96,0.00,,FEW040,0.70,VWS V14.01,2013-07-10 01:20:00,
2013-07-09 21:25:00,72.1,70.9,29.99,ESE,117,0.0,0.0,96,0.00,,FEW040,0.70,VWS V14.01,2013-07-10 01:25:00,
2013-07-09 21:30:00,71.9,70.7,30.00,ESE,117,0.0,0.0,96,0.00,,FEW040,0.70,VWS V14.01,2013-07-10 01:30:00,
2013-07-09 21:36:00,71.9,71.0,30.00,ESE,117,0.0,0.0,97,0.00,,FEW040,0.70,VWS V14.01,2013-07-10 01:36:00,
2013-07-09 21:41:00,71.9,71.0,30.00,SE,127,0.0,0.0,97,0.00,,FEW040,0.70,VWS V14.01,2013-07-10 01:41:00,
2013-07-09 21:46:00,71.9,71.0,30.00,SE,139,0.0,1.0,97,0.00,,FEW040,0.70,VWS V14.01,2013-07-10 01:46:00,
2013-07-09 21:51:00,72.1,71.2,30.00,SE,139,0.0,0.0,97,0.00,,FEW040,0.70,VWS V14.01,2013-07-10 01:51:00,
2013-07-09 21:56:00,72.2,71.0,30.00,SSE,159,0.0,0.0,96,0.00,,FEW040,0.70,VWS V14.01,2013-07-10 01:56:00,
2013-07-09 22:01:00,72.3,70.8,30.00,SSE,149,0.0,0.0,95,0.00,,FEW040,0.70,VWS V14.01,2013-07-10 02:01:00,
2013-07-09 22:06:00,72.4,70.9,30.00,SSE,149,0.0,0.0,95,0.00,,BKN055,0.70,VWS V14.01,2013-07-10 02:06:00,
2013-07-09 22:11:00,72.5,70.7,30.00,SSE,149,0.0,0.0,94,0.00,,BKN055,0.70,VWS V14.01,2013-07-10 02:11:00,
2013-07-09 22:16:00,72.7,70.9,30.00,SE,126,0.0,0.0,94,0.00,,BKN055,0.70,VWS V14.01,2013-07-10 02:16:00,
2013-07-09 22:21:00,72.8,70.7,30.00,SE,127,0.0,0.0,93,0.00,,BKN055,0.70,VWS V14.01,2013-07-10 02:21:00,
2013-07-09 22:26:00,73.0,70.9,30.00,South,181,0.0,0.0,93,0.00,,BKN055,0.70,VWS V14.01,2013-07-10 02:26:00,
2013-07-09 22:31:00,73.1,71.0,30.00,SSW,212,0.0,0.0,93,0.00,,BKN055,0.70,VWS V14.01,2013-07-10 02:31:00,
2013-07-09 22:36:00,73.2,70.7,30.00,SE,146,0.0,2.0,92,0.00,,BKN055,0.70,VWS V14.01,2013-07-10 02:36:00,
2013-07-09 22:41:00,73.2,70.7,29.99,ESE,108,0.0,0.0,92,0.00,,BKN055,0.70,VWS V14.01,2013-07-10 02:41:00,
2013-07-09 22:47:00,73.4,70.9,29.99,SE,128,0.0,3.0,92,0.00,,BKN055,0.70,VWS V14.01,2013-07-10 02:47:00,
2013-07-09 22:52:00,73.5,71.0,29.99,SSE,152,0.0,1.0,92,0.00,,BKN055,0.70,VWS V14.01,2013-07-10 02:52:00,
2013-07-09 22:57:00,73.6,71.1,29.99,SE,140,1.0,1.0,92,0.00,,BKN055,0.70,VWS V14.01,2013-07-10 02:57:00,
2013-07-09 23:02:00,73.7,71.2,29.99,SE,124,0.0,1.0,92,0.00,,BKN055,0.70,VWS V14.01,2013-07-10 03:02:00,
2013-07-09 23:07:00,73.7,71.2,29.99,SE,124,0.0,1.0,92,0.00,,,0.70,VWS V14.01,2013-07-10 03:07:00,
2013-07-09 23:12:00,73.8,71.3,29.99,SE,127,0.0,1.0,92,0.00,,,0.70,VWS V14.01,2013-07-10 03:12:00,
2013-07-09 23:18:00,73.7,71.2,29.98,SSE,158,0.0,0.0,92,0.00,,,0.70,VWS V14.01,2013-07-10 03:18:00,
2013-07-09 23:23:00,73.7,71.2,29.99,SSE,158,0.0,0.0,92,0.00,,,0.70,VWS V14.01,2013-07-10 03:23:00,
2013-07-09 23:28:00,73.6,71.1,29.99,ESE,110,0.0,1.0,92,0.00,,,0.70,VWS V14.01,2013-07-10 03:28:00,
2013-07-09 23:33:00,73.7,71.2,29.98,ESE,114,0.0,2.0,92,0.00,,,0.70,VWS V14.01,2013-07-10 03:33:00,
2013-07-09 23:38:00,73.8,71.3,29.98,ESE,108,0.0,1.0,92,0.00,,,0.70,VWS V14.01,2013-07-10 03:38:00,
2013-07-09 23:43:00,73.7,71.2,29.98,ESE,103,0.0,0.0,92,0.00,,,0.70,VWS V14.01,2013-07-10 03:43:00,
2013-07-09 23:48:00,73.7,71.2,29.98,East,101,0.0,0.0,92,0.00,,,0.70,VWS V14.01,2013-07-10 03:48:00,
2013-07-09 23:53:00,73.7,71.2,29.97,ESE,110,0.0,3.0,92,0.00,,,0.70,VWS V14.01,2013-07-10 03:53:00,
2013-07-09 23:58:00,73.7,71.2,29.97,ESE,115,0.0,1.0,92,0.00,,,0.70,VWS V14.01,2013-07-10 03:58:00,